Time;durP1;ratioP1;P1;durP2;ratioP2;P2;SDS_P1;SDS_P2;PMS_P1;PMS_P2;Temp;Humidity;BMP_temperature;BMP_pressure;BME280_temperature;BME280_humidity;BME280_pressure;Samples;Min_cycle;Max_cycle;Signal;HPM_P1;HPM_P2
2021/01/05 00:01:16;;;;;;;44.97;17.92;;;-0.20;99.90;;;;;;5090408;28;20036;-78
2021/01/05 00:03:47;;;;;;;32.60;16.33;;;-0.20;99.90;;;;;;5074076;28;20047;-78
2021/01/05 00:06:18;;;;;;;33.38;16.00;;;-0.20;99.90;;;;;;5073808;28;20059;-77
2021/01/05 00:08:49;;;;;;;32.17;14.30;;;-0.20;99.90;;;;;;5073474;28;20051;-78
2021/01/05 00:11:16;;;;;;;32.42;15.70;;;-0.20;99.90;;;;;;5089937;28;20032;-77
2021/01/05 00:13:47;;;;;;;32.60;15.57;;;-0.20;99.90;;;;;;5073509;28;20051;-78
2021/01/05 00:16:18;;;;;;;29.02;13.82;;;-0.20;99.90;;;;;;5073565;28;20108;-77
2021/01/05 00:18:49;;;;;;;31.88;13.45;;;-0.30;99.90;;;;;;5073413;28;20406;-78
2021/01/05 00:21:20;;;;;;;29.70;12.73;;;-0.30;99.90;;;;;;5073501;28;20383;-78
2021/01/05 00:23:52;;;;;;;23.17;12.10;;;-0.20;99.90;;;;;;5089457;28;20139;-77
2021/01/05 00:26:23;;;;;;;26.25;12.15;;;-0.20;99.90;;;;;;5089577;28;20031;-78
2021/01/05 00:28:54;;;;;;;28.85;11.55;;;-0.30;99.90;;;;;;5089412;28;20494;-77
2021/01/05 00:31:25;;;;;;;23.20;10.65;;;-0.20;99.90;;;;;;5089428;28;20134;-78
2021/01/05 00:33:57;;;;;;;24.30;11.40;;;-0.20;99.90;;;;;;5072815;28;20507;-77
2021/01/05 00:36:28;;;;;;;23.67;10.63;;;-0.20;99.90;;;;;;5073405;28;20100;-77
2021/01/05 00:39:00;;;;;;;22.33;10.35;;;-0.20;99.90;;;;;;5072936;28;20147;-77
2021/01/05 00:41:32;;;;;;;21.13;9.70;;;-0.20;99.90;;;;;;5090565;28;20039;-78
2021/01/05 00:44:03;;;;;;;20.65;10.30;;;-0.20;99.90;;;;;;5072295;28;20066;-78
2021/01/05 00:46:34;;;;;;;22.33;10.15;;;-0.20;99.90;;;;;;5089375;28;20050;-78
2021/01/05 00:49:00;;;;;;;20.58;9.50;;;-0.20;99.90;;;;;;5071934;28;20044;-78
2021/01/05 00:51:31;;;;;;;20.02;8.50;;;-0.20;99.90;;;;;;5073330;28;20173;-77
2021/01/05 00:53:58;;;;;;;18.25;8.65;;;-0.10;99.90;;;;;;5072319;28;20050;-78
2021/01/05 00:56:29;;;;;;;17.90;9.13;;;-0.10;99.90;;;;;;5072966;28;20117;-78
2021/01/05 00:59:01;;;;;;;21.15;9.70;;;-0.10;99.90;;;;;;5088711;28;20036;-77
2021/01/05 01:01:28;;;;;;;18.67;8.70;;;-0.10;99.90;;;;;;5072292;28;20048;-77
2021/01/05 01:03:59;;;;;;;19.95;9.00;;;-0.10;99.90;;;;;;5089094;28;20044;-78
2021/01/05 01:06:30;;;;;;;19.10;9.35;;;-0.10;99.90;;;;;;5056257;28;20082;-78
2021/01/05 01:09:01;;;;;;;15.77;8.23;;;-0.10;99.90;;;;;;5048674;28;20041;-78
2021/01/05 01:11:33;;;;;;;19.23;8.93;;;-0.10;99.90;;;;;;5075697;28;20040;-77
2021/01/05 01:14:05;;;;;;;19.13;8.98;;;-0.10;99.90;;;;;;5062917;28;20047;-77
2021/01/05 01:16:37;;;;;;;16.08;7.80;;;-0.10;99.90;;;;;;5067717;28;20036;-78
2021/01/05 01:19:08;;;;;;;18.08;8.38;;;0.00;99.90;;;;;;5071452;28;20043;-78
2021/01/05 01:21:52;;;;;;;20.10;7.97;;;0.00;99.90;;;;;;5082393;28;20111;-78
2021/01/05 01:24:20;;;;;;;14.93;7.53;;;0.00;99.90;;;;;;5057376;28;20064;-78
2021/01/05 01:26:53;;;;;;;16.45;8.32;;;0.00;99.90;;;;;;5066331;28;20035;-77
2021/01/05 01:29:26;;;;;;;16.60;8.20;;;0.00;99.90;;;;;;5053784;28;20048;-78
2021/01/05 01:32:00;;;;;;;19.73;8.63;;;0.00;99.90;;;;;;5064038;28;20044;-78
2021/01/05 01:34:31;;;;;;;17.58;8.35;;;0.00;99.90;;;;;;5071867;28;20044;-78
2021/01/05 01:37:10;;;;;;;15.85;7.95;;;0.00;99.90;;;;;;5073167;28;20498;-78
2021/01/05 01:39:44;;;;;;;16.85;8.82;;;0.00;99.90;;;;;;5073077;28;20040;-78
2021/01/05 01:42:23;;;;;;;22.80;9.35;;;0.00;99.90;;;;;;5074193;28;20134;-78
2021/01/05 01:44:55;;;;;;;19.98;9.68;;;0.00;99.90;;;;;;5073175;28;20047;-78
2021/01/05 01:47:34;;;;;;;21.00;9.82;;;0.00;99.90;;;;;;5089380;28;20040;-78
2021/01/05 01:50:15;;;;;;;;;;;0.00;99.90;;;;;;5074845;28;20040;-78
2021/01/05 01:53:16;;;;;;;23.27;11.02;;;0.00;99.90;;;;;;5089571;28;19963;-78
2021/01/05 01:56:00;;;;;;;25.20;10.43;;;0.00;99.90;;;;;;5075661;28;20069;-78
2021/01/05 01:58:56;;;;;;;19.83;10.15;;;0.00;99.90;;;;;;5078253;28;20032;-78
2021/01/05 02:01:42;;;;;;;22.80;11.10;;;0.00;99.90;;;;;;5077076;28;20510;-78
2021/01/05 02:04:43;;;;;;;19.88;10.48;;;0.00;99.90;;;;;;5077115;28;20131;-78
2021/01/05 02:07:36;;;;;;;23.30;10.60;;;0.00;99.90;;;;;;5042696;28;20093;-78
2021/01/05 02:10:15;;;;;;;22.13;10.80;;;0.00;99.90;;;;;;5076932;28;20044;-78
2021/01/05 02:13:29;;;;;;;22.90;11.18;;;0.00;99.90;;;;;;5076989;28;20134;-78
2021/01/05 02:16:34;;;;;;;22.80;11.07;;;0.00;99.90;;;;;;5077176;28;20080;-78
2021/01/05 02:19:26;;;;;;;22.88;11.05;;;0.00;99.90;;;;;;5077780;28;20051;-78
2021/01/05 02:22:24;;;;;;;22.52;11.13;;;0.00;99.90;;;;;;5076869;28;20506;-78
2021/01/05 02:25:07;;;;;;;21.02;10.90;;;0.00;99.90;;;;;;5076513;28;20039;-78
2021/01/05 02:28:06;;;;;;;23.73;11.48;;;0.00;99.90;;;;;;5077509;28;20040;-78
2021/01/05 02:30:41;;;;;;;19.85;10.20;;;0.00;99.90;;;;;;5076451;28;20097;-78
2021/01/05 02:33:31;;;;;;;24.55;10.93;;;0.00;99.90;;;;;;5076283;28;20048;-78
2021/01/05 02:36:31;;;;;;;22.77;10.48;;;0.00;99.90;;;;;;5076645;28;20506;-78
2021/01/05 02:39:53;;;;;;;25.48;11.65;;;0.00;99.90;;;;;;5092842;28;20043;-78
2021/01/05 02:43:16;;;;;;;20.52;11.85;;;0.00;99.90;;;;;;5093838;28;20105;-78
2021/01/05 02:46:23;;;;;;;21.40;11.38;;;0.00;99.90;;;;;;5094092;28;20051;-78
2021/01/05 02:49:39;;;;;;;22.88;11.68;;;0.00;99.90;;;;;;5092943;28;20085;-78
2021/01/05 02:52:41;;;;;;;25.92;11.40;;;0.00;99.90;;;;;;5092919;28;20067;-78
2021/01/05 02:55:48;;;;;;;21.77;11.38;;;-0.10;99.90;;;;;;5092835;28;20169;-78
2021/01/05 02:59:13;;;;;;;20.90;10.85;;;0.00;99.90;;;;;;5092780;28;20051;-78
2021/01/05 03:02:38;;;;;;;19.10;10.43;;;0.00;99.90;;;;;;5092996;28;20050;-78
2021/01/05 03:05:28;;;;;;;;;;;0.00;99.90;;;;;;5031420;28;20072;-78
2021/01/05 03:08:26;;;;;;;15.82;8.38;;;0.00;99.90;;;;;;5093719;28;19926;-78
2021/01/05 03:11:27;;;;;;;15.65;8.98;;;0.00;99.90;;;;;;5093487;28;20108;-78
2021/01/05 03:15:07;;;;;;;16.75;10.02;;;0.00;99.90;;;;;;5092677;28;20529;-78
2021/01/05 03:18:03;;;;;;;16.38;9.10;;;0.00;99.90;;;;;;5049111;28;20055;-78
2021/01/05 03:21:04;;;;;;;19.05;10.95;;;0.00;99.90;;;;;;5092669;28;20093;-78
2021/01/05 03:23:58;;;;;;;16.83;9.80;;;0.00;99.90;;;;;;5092481;28;20051;-78
2021/01/05 03:26:46;;;;;;;20.30;9.05;;;0.00;99.90;;;;;;5092758;28;20422;-78
2021/01/05 03:29:31;;;;;;;17.35;9.07;;;0.00;99.90;;;;;;5092844;28;20043;-78
2021/01/05 03:32:22;;;;;;;16.02;9.48;;;0.00;99.90;;;;;;5092797;28;20054;-78
2021/01/05 03:35:12;;;;;;;16.90;9.15;;;-0.10;99.90;;;;;;5092224;28;20051;-78
2021/01/05 03:38:02;;;;;;;15.35;9.43;;;-0.10;99.90;;;;;;5092286;28;20118;-78
2021/01/05 03:41:00;;;;;;;16.98;9.02;;;-0.10;99.90;;;;;;5061163;28;20051;-78
2021/01/05 03:43:49;;;;;;;18.23;9.80;;;-0.10;99.90;;;;;;5092063;28;20054;-78
2021/01/05 03:46:39;;;;;;;19.30;9.70;;;-0.10;99.90;;;;;;5092386;28;20055;-78
2021/01/05 03:49:29;;;;;;;17.30;9.50;;;-0.10;99.90;;;;;;5092224;28;20130;-78
2021/01/05 03:52:18;;;;;;;18.58;12.60;;;-0.10;99.90;;;;;;5093484;28;20054;-78
2021/01/05 03:55:09;;;;;;;18.35;10.15;;;-0.10;99.90;;;;;;5092037;28;20042;-78
2021/01/05 03:57:59;;;;;;;16.90;9.88;;;-0.10;99.90;;;;;;5091754;28;20125;-78
2021/01/05 04:00:49;;;;;;;18.15;10.50;;;-0.10;99.90;;;;;;5091887;28;20512;-78
2021/01/05 04:03:20;;;;;;;17.30;9.68;;;-0.10;99.90;;;;;;5091403;28;20040;-78
2021/01/05 04:05:52;;;;;;;18.33;10.60;;;-0.10;99.90;;;;;;5075033;28;20540;-78
2021/01/05 04:08:23;;;;;;;19.40;10.40;;;-0.10;99.90;;;;;;5091108;28;20061;-78
2021/01/05 04:10:54;;;;;;;20.73;10.57;;;0.00;99.90;;;;;;5075225;28;20043;-78
2021/01/05 04:13:26;;;;;;;19.15;10.55;;;-0.10;99.90;;;;;;5091285;28;20044;-78
2021/01/05 04:15:57;;;;;;;19.98;11.02;;;-0.10;99.90;;;;;;5075261;28;20042;-78
2021/01/05 04:18:28;;;;;;;19.67;10.77;;;-0.10;99.90;;;;;;5073774;28;20032;-78
2021/01/05 04:20:54;;;;;;;20.17;9.73;;;-0.10;99.90;;;;;;5090919;28;20072;-78
2021/01/05 04:23:25;;;;;;;21.40;11.13;;;-0.10;99.90;;;;;;5074838;28;20047;-78
2021/01/05 04:25:57;;;;;;;20.30;10.27;;;-0.10;99.90;;;;;;5090692;28;20147;-78
2021/01/05 04:28:28;;;;;;;20.05;9.85;;;-0.10;99.90;;;;;;5074454;28;20387;-78
2021/01/05 04:30:59;;;;;;;23.13;10.85;;;-0.10;99.90;;;;;;5090779;28;20039;-78
2021/01/05 04:33:30;;;;;;;25.83;12.70;;;-0.10;99.90;;;;;;5074429;28;20051;-78
2021/01/05 04:36:02;;;;;;;24.63;11.70;;;-0.10;99.90;;;;;;5090349;28;20040;-78
2021/01/05 04:38:33;;;;;;;22.60;11.82;;;-0.20;99.90;;;;;;5074442;28;20062;-78
2021/01/05 04:41:04;;;;;;;20.48;9.80;;;-0.30;99.90;;;;;;5074727;28;20131;-78
2021/01/05 04:43:36;;;;;;;18.58;8.93;;;-0.30;99.90;;;;;;5074161;28;20616;-78
2021/01/05 04:46:14;;;;;;;23.35;10.63;;;-0.30;99.90;;;;;;5073732;28;20054;-78
2021/01/05 04:48:59;;;;;;;22.52;12.38;;;-0.30;99.90;;;;;;5073673;28;20097;-78
2021/01/05 04:51:43;;;;;;;19.60;11.05;;;-0.30;99.90;;;;;;5090522;28;20134;-78
2021/01/05 04:54:41;;;;;;;19.42;9.90;;;-0.20;99.90;;;;;;5090374;28;20047;-78
2021/01/05 04:57:18;;;;;;;22.15;10.20;;;-0.20;99.90;;;;;;5090287;28;20038;-78
2021/01/05 04:59:52;;;;;;;20.02;9.82;;;-0.20;99.90;;;;;;5073816;28;20071;-78
2021/01/05 05:02:50;;;;;;;13.80;7.70;;;-0.20;99.90;;;;;;5073362;28;20047;-78
2021/01/05 05:05:24;;;;;;;19.05;9.25;;;-0.30;99.90;;;;;;5074013;28;20498;-78
2021/01/05 05:08:14;;;;;;;17.40;7.43;;;-0.30;99.90;;;;;;5074164;28;20044;-78
2021/01/05 05:11:02;;;;;;;18.63;9.00;;;-0.20;99.90;;;;;;5090320;28;20048;-78
2021/01/05 05:14:08;;;;;;;17.65;9.02;;;-0.20;99.90;;;;;;5073870;28;20097;-78
2021/01/05 05:16:42;;;;;;;15.95;8.13;;;-0.30;99.90;;;;;;5090061;28;20414;-78
2021/01/05 05:19:42;;;;;;;17.10;9.18;;;-0.30;99.90;;;;;;5074230;28;20046;-78
2021/01/05 05:22:35;;;;;;;18.13;8.50;;;-0.30;99.90;;;;;;5090079;28;20044;-78
2021/01/05 05:25:19;;;;;;;17.63;9.10;;;-0.30;99.90;;;;;;5089927;28;20482;-78
2021/01/05 05:27:58;;;;;;;21.13;8.98;;;-0.30;99.90;;;;;;5073535;28;20047;-78
2021/01/05 05:30:36;;;;;;;16.15;7.85;;;-0.30;99.90;;;;;;5089681;28;20089;-78
2021/01/05 05:33:22;;;;;;;21.77;9.63;;;-0.30;99.90;;;;;;5089710;28;20047;-78
2021/01/05 05:36:14;;;;;;;20.65;8.65;;;-0.20;99.90;;;;;;5073516;28;20044;-78
2021/01/05 05:39:13;;;;;;;19.88;9.48;;;-0.20;99.90;;;;;;5073702;28;20050;-78
2021/01/05 05:42:04;;;;;;;19.35;9.57;;;-0.20;99.90;;;;;;5073407;28;20143;-78
2021/01/05 05:44:53;;;;;;;20.23;9.27;;;-0.20;99.90;;;;;;5073570;28;20048;-78
2021/01/05 05:47:38;;;;;;;;;;;-0.10;99.90;;;;;;5072938;28;20396;-78
2021/01/05 05:50:28;;;;;;;21.70;9.60;;;-0.10;99.90;;;;;;5073140;28;20348;-78
2021/01/05 05:53:10;;;;;;;22.58;10.05;;;-0.10;99.90;;;;;;5073371;28;20246;-78
2021/01/05 05:55:47;;;;;;;21.27;11.18;;;-0.10;99.90;;;;;;5073359;28;20127;-78
2021/01/05 05:58:23;;;;;;;22.63;11.45;;;-0.10;99.90;;;;;;5073066;28;20040;-78
2021/01/05 06:00:58;;;;;;;22.00;11.52;;;-0.20;99.90;;;;;;5089613;28;20079;-78
2021/01/05 06:03:29;;;;;;;20.75;10.93;;;-0.20;99.90;;;;;;5073486;28;20408;-78
2021/01/05 06:06:00;;;;;;;23.98;10.50;;;-0.30;99.90;;;;;;5089854;28;20123;-78
2021/01/05 06:08:31;;;;;;;20.05;9.68;;;-0.30;99.90;;;;;;5073432;28;20044;-78
2021/01/05 06:10:58;;;;;;;22.70;10.52;;;-0.30;99.90;;;;;;5072606;28;20111;-78
2021/01/05 06:13:24;;;;;;;21.35;9.88;;;-0.30;99.90;;;;;;5072713;28;20143;-78
2021/01/05 06:15:55;;;;;;;22.05;10.15;;;-0.30;99.90;;;;;;5089262;28;20040;-78
2021/01/05 06:18:26;;;;;;;23.95;10.40;;;-0.30;99.90;;;;;;5089664;28;20592;-78
2021/01/05 06:20:58;;;;;;;22.55;10.82;;;-0.40;99.90;;;;;;5073174;28;20040;-78
2021/01/05 06:23:29;;;;;;;23.08;10.75;;;-0.40;99.90;;;;;;5073149;28;20044;-78
2021/01/05 06:26:00;;;;;;;26.05;12.40;;;-0.30;99.90;;;;;;5074234;28;20516;-81
2021/01/05 06:28:26;;;;;;;26.75;11.15;;;-0.40;99.90;;;;;;5075157;28;20050;-78
2021/01/05 06:30:58;;;;;;;22.23;11.27;;;-0.40;99.90;;;;;;5075417;28;20058;-78
2021/01/05 06:33:29;;;;;;;20.73;11.43;;;-0.30;99.90;;;;;;5090971;28;20040;-78
2021/01/05 06:36:00;;;;;;;22.63;10.73;;;-0.30;99.90;;;;;;5091687;28;20040;-78
2021/01/05 06:38:31;;;;;;;26.52;11.02;;;-0.20;99.90;;;;;;5074889;28;20144;-78
2021/01/05 06:41:03;;;;;;;21.23;9.93;;;-0.30;99.90;;;;;;5092847;28;20426;-78
2021/01/05 06:43:34;;;;;;;23.15;10.25;;;-0.40;99.90;;;;;;5094772;28;20047;-78
2021/01/05 06:46:05;;;;;;;22.52;10.80;;;-0.30;99.90;;;;;;5094905;28;20502;-78
2021/01/05 06:48:37;;;;;;;25.30;12.48;;;-0.40;99.90;;;;;;5078511;28;20138;-78
2021/01/05 06:51:08;;;;;;;26.20;11.82;;;-0.40;99.90;;;;;;5079147;28;20503;-78
2021/01/05 06:53:39;;;;;;;30.70;12.80;;;-0.40;99.90;;;;;;5075604;28;20071;-78
2021/01/05 06:56:14;;;;;;;26.35;11.40;;;-0.50;99.90;;;;;;5067256;28;20039;-77
2021/01/05 06:58:45;;;;;;;25.67;11.80;;;-0.50;99.90;;;;;;5071595;28;20045;-78
2021/01/05 07:01:16;;;;;;;25.42;11.18;;;-0.50;99.90;;;;;;5090462;28;20036;-78
2021/01/05 07:03:47;;;;;;;24.33;11.30;;;-0.60;99.90;;;;;;5079691;28;20039;-78
2021/01/05 07:06:21;;;;;;;26.48;11.13;;;-0.60;99.90;;;;;;5082917;28;20531;-77
2021/01/05 07:08:52;;;;;;;;;;;-0.60;99.90;;;;;;5072510;28;20067;-78
2021/01/05 07:11:24;;;;;;;23.10;10.30;;;-0.60;99.90;;;;;;5073743;28;20035;-77
2021/01/05 07:13:55;;;;;;;20.63;11.25;;;-0.50;99.90;;;;;;5057683;28;20143;-78
2021/01/05 07:16:26;;;;;;;22.73;10.82;;;-0.60;99.90;;;;;;5057846;28;20037;-78
2021/01/05 07:18:59;;;;;;;23.00;11.82;;;-0.60;99.90;;;;;;5093320;28;20491;-78
2021/01/05 07:21:30;;;;;;;24.60;10.25;;;-0.60;99.90;;;;;;5077481;28;20040;-77
2021/01/05 07:24:02;;;;;;;23.10;11.45;;;-0.60;99.90;;;;;;5077698;28;20064;-77
2021/01/05 07:26:32;;;;;;;26.90;12.13;;;-0.50;99.90;;;;;;5081466;28;20040;-77
2021/01/05 07:29:03;;;;;;;26.73;12.38;;;-0.50;99.90;;;;;;5057095;28;20051;-78
2021/01/05 07:31:34;;;;;;;28.52;12.70;;;-0.60;99.90;;;;;;5073236;28;20548;-78
2021/01/05 07:34:06;;;;;;;23.80;11.85;;;-0.60;99.90;;;;;;5064462;28;20089;-78
2021/01/05 07:36:41;;;;;;;23.52;11.05;;;-0.60;99.90;;;;;;5076714;28;20040;-78
2021/01/05 07:39:25;;;;;;;25.85;10.23;;;-0.60;99.90;;;;;;5076857;28;20233;-78
2021/01/05 07:42:08;;;;;;;23.10;10.85;;;-0.50;99.90;;;;;;5082408;28;20086;-78
2021/01/05 07:44:40;;;;;;;25.73;11.30;;;-0.40;99.90;;;;;;5084344;28;20048;-77
2021/01/05 07:47:07;;;;;;;30.40;12.98;;;-0.40;99.90;;;;;;5085956;28;20138;-78
2021/01/05 07:49:39;;;;;;;28.27;12.23;;;-0.40;99.90;;;;;;5075801;28;20119;-77
2021/01/05 07:52:19;;;;;;;25.73;12.50;;;-0.50;99.90;;;;;;5056179;28;20102;-77
2021/01/05 07:54:51;;;;;;;32.00;15.45;;;-0.50;99.90;;;;;;5066784;28;20115;-77
2021/01/05 07:57:22;;;;;;;37.92;19.05;;;-0.50;99.90;;;;;;5056760;28;20047;-78
2021/01/05 07:59:53;;;;;;;28.02;13.05;;;-0.50;99.90;;;;;;5051750;28;20117;-77
2021/01/05 08:02:24;;;;;;;27.52;11.75;;;-0.60;99.90;;;;;;5052436;28;20128;-78
2021/01/05 08:04:56;;;;;;;25.20;12.13;;;-0.60;99.90;;;;;;5080833;28;20055;-77
2021/01/05 08:07:27;;;;;;;26.48;12.52;;;-0.60;99.90;;;;;;5076373;28;20425;-78
2021/01/05 08:09:58;;;;;;;28.50;13.18;;;-0.60;99.90;;;;;;5075935;28;20044;-77
2021/01/05 08:12:24;;;;;;;29.25;14.35;;;-0.60;99.90;;;;;;5069654;28;20050;-78
2021/01/05 08:14:56;;;;;;;27.75;13.55;;;-0.60;99.90;;;;;;5055880;28;20036;-77
2021/01/05 08:17:27;;;;;;;26.25;12.55;;;-0.60;99.90;;;;;;5056146;28;20123;-77
2021/01/05 08:19:58;;;;;;;48.03;23.27;;;-0.60;99.90;;;;;;5071514;28;20410;-78
2021/01/05 08:22:29;;;;;;;37.80;18.38;;;-0.60;99.90;;;;;;5084136;28;20043;-77
2021/01/05 08:25:01;;;;;;;40.13;18.55;;;-0.70;99.90;;;;;;5066292;28;20050;-77
2021/01/05 08:27:27;;;;;;;32.47;14.65;;;-0.60;99.90;;;;;;5079496;28;20515;-78
2021/01/05 08:29:58;;;;;;;49.45;24.48;;;-0.60;99.90;;;;;;5060350;28;20036;-77
2021/01/05 08:32:24;;;;;;;41.92;19.40;;;-0.70;99.90;;;;;;5065421;28;20526;-77
2021/01/05 08:34:55;;;;;;;32.38;15.77;;;-0.70;99.90;;;;;;5071650;28;20040;-78
2021/01/05 08:37:27;;;;;;;34.40;14.95;;;-0.70;99.90;;;;;;5055583;28;20044;-78
2021/01/05 08:39:58;;;;;;;34.08;17.65;;;-0.70;99.90;;;;;;5070724;28;20049;-77
2021/01/05 08:42:29;;;;;;;33.15;15.00;;;-0.60;99.90;;;;;;5054855;28;20051;-78
2021/01/05 08:45:00;;;;;;;63.72;29.50;;;-0.70;99.90;;;;;;5068714;28;20044;-78
2021/01/05 08:47:32;;;;;;;40.80;21.05;;;-0.70;99.90;;;;;;5071297;28;20048;-77
2021/01/05 08:50:05;;;;;;;33.88;15.60;;;-0.70;99.90;;;;;;5054832;28;20048;-77
2021/01/05 08:52:36;;;;;;;;;;;-0.60;99.90;;;;;;5071623;28;20044;-78
2021/01/05 08:55:08;;;;;;;27.98;12.90;;;-0.60;99.90;;;;;;5054652;28;20015;-77
2021/01/05 08:57:39;;;;;;;37.35;15.82;;;-0.50;99.90;;;;;;5060606;28;20036;-77
2021/01/05 09:00:06;;;;;;;29.45;13.68;;;-0.60;99.90;;;;;;5090930;28;20048;-77
2021/01/05 09:02:38;;;;;;;27.65;12.65;;;-0.50;99.90;;;;;;5074751;28;20048;-77
2021/01/05 09:05:04;;;;;;;29.67;11.75;;;-0.60;99.90;;;;;;5090597;28;20147;-77
2021/01/05 09:07:30;;;;;;;27.23;12.35;;;-0.50;99.90;;;;;;5091473;28;20128;-78
2021/01/05 09:10:03;;;;;;;30.85;11.52;;;-0.50;99.90;;;;;;5074890;28;20048;-78
2021/01/05 09:12:35;;;;;;;29.02;13.20;;;-0.50;99.90;;;;;;5091142;28;20426;-78
2021/01/05 09:15:07;;;;;;;24.80;11.68;;;-0.50;99.90;;;;;;5060624;28;20055;-79
2021/01/05 09:17:39;;;;;;;29.70;12.40;;;-0.50;99.90;;;;;;5060397;28;20417;-77
2021/01/05 09:20:23;;;;;;;30.77;12.77;;;-0.50;99.90;;;;;;5083617;28;20040;-78
2021/01/05 09:22:55;;;;;;;27.58;11.85;;;-0.50;99.90;;;;;;5083525;28;20044;-77
2021/01/05 09:25:26;;;;;;;28.13;12.55;;;-0.40;99.90;;;;;;5090701;28;20052;-77
2021/01/05 09:27:57;;;;;;;25.98;12.02;;;-0.40;99.90;;;;;;5074532;28;20058;-78
2021/01/05 09:30:28;;;;;;;30.67;16.20;;;-0.40;99.90;;;;;;5075254;28;20147;-78
2021/01/05 09:33:00;;;;;;;30.17;11.63;;;-0.40;99.90;;;;;;5072970;28;20044;-77
2021/01/05 09:35:33;;;;;;;35.97;18.38;;;-0.40;99.90;;;;;;5070097;28;20062;-78
2021/01/05 09:38:08;;;;;;;36.20;17.67;;;-0.30;99.90;;;;;;5090908;28;20425;-77
2021/01/05 09:40:41;;;;;;;32.20;16.75;;;-0.30;99.90;;;;;;5074624;28;20516;-78
2021/01/05 09:43:13;;;;;;;30.52;14.60;;;-0.30;99.90;;;;;;5090651;28;20519;-78
2021/01/05 09:45:45;;;;;;;30.23;15.07;;;-0.30;99.90;;;;;;5090426;28;20054;-77
2021/01/05 09:48:17;;;;;;;26.80;13.15;;;-0.40;99.90;;;;;;5090420;28;20036;-78
2021/01/05 09:50:48;;;;;;;28.48;12.65;;;-0.50;99.90;;;;;;5090518;28;20059;-77
2021/01/05 09:53:20;;;;;;;28.20;13.82;;;-0.40;99.90;;;;;;5090598;28;20612;-78
2021/01/05 09:55:51;;;;;;;32.45;14.38;;;-0.40;99.90;;;;;;5050073;28;20748;-78
2021/01/05 09:58:22;;;;;;;75.60;34.70;;;-0.40;99.90;;;;;;5064532;28;20518;-78
2021/01/05 10:00:53;;;;;;;50.60;24.58;;;-0.30;99.90;;;;;;5074909;28;20044;-77
2021/01/05 10:03:25;;;;;;;34.15;17.25;;;-0.30;99.90;;;;;;5089957;28;20043;-78
2021/01/05 10:05:56;;;;;;;29.05;14.07;;;-0.30;99.90;;;;;;5073967;28;20040;-78
2021/01/05 10:08:28;;;;;;;39.92;18.20;;;-0.30;99.90;;;;;;5089625;28;20119;-77
2021/01/05 10:10:59;;;;;;;29.35;15.43;;;-0.30;99.90;;;;;;5073941;28;20040;-78
2021/01/05 10:13:30;;;;;;;51.55;24.55;;;-0.30;99.90;;;;;;5074180;28;20414;-78
2021/01/05 10:15:56;;;;;;;40.40;18.95;;;-0.30;99.90;;;;;;5073749;28;20143;-78
2021/01/05 10:18:27;;;;;;;46.78;21.63;;;-0.40;99.90;;;;;;5092476;28;20045;-77
2021/01/05 10:20:58;;;;;;;85.47;42.47;;;-0.40;99.90;;;;;;5080842;28;20040;-77
2021/01/05 10:23:24;;;;;;;43.25;21.67;;;-0.40;99.90;;;;;;5096521;28;20417;-78
2021/01/05 10:25:56;;;;;;;30.73;15.60;;;-0.40;99.90;;;;;;5081029;28;20048;-77
2021/01/05 10:28:27;;;;;;;38.35;18.45;;;-0.40;99.90;;;;;;5081311;28;20131;-78
2021/01/05 10:31:00;;;;;;;29.95;14.40;;;-0.30;99.90;;;;;;5078869;28;20048;-77
2021/01/05 10:33:31;;;;;;;31.57;15.43;;;-0.30;99.90;;;;;;5077384;28;20055;-77
2021/01/05 10:36:03;;;;;;;30.70;13.38;;;-0.40;99.90;;;;;;5075633;28;20286;-78
2021/01/05 10:38:34;;;;;;;28.67;13.32;;;-0.40;99.90;;;;;;5073833;28;20426;-78
2021/01/05 10:41:06;;;;;;;29.55;13.52;;;-0.40;99.90;;;;;;5082540;28;20086;-77
2021/01/05 10:43:37;;;;;;;33.67;15.32;;;-0.30;99.90;;;;;;5059550;28;20187;-78
2021/01/05 10:46:09;;;;;;;31.52;14.77;;;-0.30;99.90;;;;;;5074699;28;20529;-78
2021/01/05 10:48:40;;;;;;;26.77;14.30;;;-0.40;99.90;;;;;;5070969;28;20036;-78
2021/01/05 10:51:10;;;;;;;32.13;14.63;;;-0.30;99.90;;;;;;5074377;28;20186;-78
2021/01/05 10:53:36;;;;;;;28.88;15.13;;;-0.30;99.90;;;;;;5057385;28;20079;-77
2021/01/05 10:56:03;;;;;;;34.92;15.30;;;-0.20;99.90;;;;;;5056921;28;20052;-78
2021/01/05 10:58:30;;;;;;;30.85;13.35;;;-0.20;99.90;;;;;;5073558;28;20122;-78
2021/01/05 11:01:01;;;;;;;32.50;14.40;;;-0.10;99.90;;;;;;5064029;28;20038;-83
2021/01/05 11:03:28;;;;;;;29.17;14.38;;;0.00;99.90;;;;;;5071982;28;20521;-78
2021/01/05 11:06:00;;;;;;;30.33;12.98;;;0.00;99.90;;;;;;5070065;28;20059;-79
2021/01/05 11:08:32;;;;;;;23.02;11.25;;;0.10;99.90;;;;;;5063466;28;20043;-78
2021/01/05 11:11:05;;;;;;;19.42;8.52;;;0.10;99.90;;;;;;5058581;28;20041;-79
2021/01/05 11:13:36;;;;;;;28.25;13.13;;;0.20;99.90;;;;;;5059623;28;20052;-78
2021/01/05 11:16:03;;;;;;;26.40;14.05;;;0.20;99.90;;;;;;5078725;28;20055;-78
2021/01/05 11:18:29;;;;;;;21.17;9.93;;;0.30;99.90;;;;;;5088967;28;20042;-78
2021/01/05 11:20:56;;;;;;;16.52;8.40;;;0.30;99.90;;;;;;5074948;28;20037;-78
2021/01/05 11:23:27;;;;;;;16.35;7.47;;;0.30;99.90;;;;;;5077215;28;20037;-84
2021/01/05 11:25:54;;;;;;;13.82;7.35;;;0.30;99.90;;;;;;5087926;28;20725;-83
2021/01/05 11:28:22;;;;;;;14.27;7.82;;;0.30;99.90;;;;;;5100842;28;20036;-83
2021/01/05 11:30:49;;;;;;;13.68;7.32;;;0.30;99.90;;;;;;5076834;28;20048;-78
2021/01/05 11:33:15;;;;;;;16.17;9.25;;;0.30;99.90;;;;;;5074012;28;20147;-83
2021/01/05 11:35:43;;;;;;;22.30;10.93;;;0.40;99.90;;;;;;5061151;28;20043;-83
2021/01/05 11:38:10;;;;;;;28.92;14.65;;;0.40;99.90;;;;;;5062176;28;20045;-83
2021/01/05 11:40:37;;;;;;;24.40;12.23;;;0.40;99.90;;;;;;5072904;28;20044;-83
2021/01/05 11:43:04;;;;;;;16.67;8.30;;;0.40;99.90;;;;;;5077869;28;20040;-83
2021/01/05 11:45:30;;;;;;;16.48;8.40;;;0.40;99.90;;;;;;5061137;28;20083;-83
2021/01/05 11:47:57;;;;;;;17.75;9.43;;;0.30;99.90;;;;;;5060513;28;20072;-83
2021/01/05 11:50:23;;;;;;;16.25;8.63;;;0.30;99.90;;;;;;5060659;28;20049;-84
2021/01/05 11:52:50;;;;;;;19.63;9.13;;;0.40;99.90;;;;;;5058310;28;20570;-78
2021/01/05 11:55:21;;;;;;;17.60;7.57;;;0.40;99.90;;;;;;5060549;28;20131;-83
2021/01/05 12:06:33;;;;;;;15.68;7.95;;;0.40;99.90;;;;;;5071789;28;20034;-80
2021/01/05 12:09:08;;;;;;;13.40;6.53;;;0.40;99.90;;;;;;5054044;28;20414;-81
2021/01/05 12:11:40;;;;;;;16.27;8.10;;;0.40;99.90;;;;;;5071565;28;20033;-81
2021/01/05 12:14:13;;;;;;;18.20;8.27;;;0.40;99.90;;;;;;5052775;28;20521;-79
2021/01/05 12:16:47;;;;;;;16.40;8.13;;;0.40;99.90;;;;;;5070327;28;20044;-80
2021/01/05 12:19:23;;;;;;;14.77;7.18;;;0.30;99.90;;;;;;5051768;28;20051;-80
2021/01/05 12:21:59;;;;;;;18.58;7.97;;;0.30;99.90;;;;;;5070431;28;20514;-81
2021/01/05 12:24:32;;;;;;;18.55;8.88;;;0.30;99.90;;;;;;5054610;28;20507;-81
2021/01/05 12:27:06;;;;;;;19.80;8.82;;;0.30;99.90;;;;;;5070659;28;20116;-80
2021/01/05 12:29:36;;;;;;;16.10;7.15;;;0.30;99.90;;;;;;5070137;28;20068;-80
2021/01/05 12:32:12;;;;;;;15.90;7.30;;;0.30;99.90;;;;;;5054493;28;20075;-81
2021/01/05 12:34:45;;;;;;;14.73;6.93;;;0.30;99.90;;;;;;5035899;28;20084;-80
2021/01/05 12:37:20;;;;;;;14.80;6.97;;;0.30;99.90;;;;;;5054265;28;20044;-80
2021/01/05 12:39:51;;;;;;;15.10;6.80;;;0.30;99.90;;;;;;5069472;28;20064;-80
2021/01/05 12:42:24;;;;;;;15.90;7.22;;;0.20;99.90;;;;;;5069981;28;20073;-81
2021/01/05 12:44:56;;;;;;;21.88;7.95;;;0.20;99.90;;;;;;5057090;28;20044;-82
2021/01/05 12:47:27;;;;;;;16.42;7.63;;;0.20;99.90;;;;;;5063062;28;20113;-83
2021/01/05 12:49:54;;;;;;;17.27;8.00;;;0.20;99.90;;;;;;5055955;28;20045;-81
2021/01/05 12:52:26;;;;;;;26.25;13.07;;;0.20;99.90;;;;;;5040219;28;20063;-82
2021/01/05 12:54:57;;;;;;;28.33;13.70;;;0.20;99.90;;;;;;5037314;28;20045;-83
2021/01/05 12:57:28;;;;;;;22.52;9.48;;;0.20;99.90;;;;;;5038049;28;20041;-83
2021/01/05 12:59:55;;;;;;;19.67;9.13;;;0.20;99.90;;;;;;5055752;28;20140;-83
2021/01/05 13:02:29;;;;;;;23.88;11.52;;;0.20;99.90;;;;;;5059333;28;20044;-83
2021/01/05 13:04:58;;;;;;;19.60;10.68;;;0.20;99.90;;;;;;5080436;28;20112;-83
2021/01/05 13:07:24;;;;;;;21.88;10.95;;;0.20;99.90;;;;;;5079427;28;20044;-83
2021/01/05 13:09:53;;;;;;;17.23;9.70;;;0.20;99.90;;;;;;5079290;28;20070;-83
2021/01/05 13:12:24;;;;;;;19.58;9.15;;;0.20;99.90;;;;;;5096111;28;20507;-83
2021/01/05 13:14:50;;;;;;;19.65;9.75;;;0.20;99.90;;;;;;5084559;28;20047;-77
2021/01/05 13:17:16;;;;;;;15.45;8.15;;;0.20;99.90;;;;;;5088152;28;20124;-77
2021/01/05 13:19:43;;;;;;;20.35;9.02;;;0.30;99.90;;;;;;5066773;28;21229;-77
2021/01/05 13:22:09;;;;;;;19.70;9.60;;;0.30;99.90;;;;;;5066592;28;20056;-77
2021/01/05 13:24:40;;;;;;;19.95;9.48;;;0.30;99.90;;;;;;5060909;28;20511;-77
2021/01/05 13:27:11;;;;;;;17.75;8.73;;;0.30;99.90;;;;;;5057664;28;20071;-77
2021/01/05 13:29:43;;;;;;;19.13;9.38;;;0.30;99.90;;;;;;5067129;28;20047;-77